createdAt,value
2022-10-19T00:00:32.655Z,10.88
2022-10-19T00:02:59.020Z,10.81
2022-10-19T00:05:25.593Z,10.86
2022-10-19T00:07:51.969Z,10.81
2022-10-19T00:10:18.411Z,10.85
2022-10-19T00:12:44.817Z,10.83
2022-10-19T00:15:11.265Z,10.79
2022-10-19T00:17:39.618Z,10.65
2022-10-19T00:20:06.315Z,10.52
2022-10-19T00:22:33.047Z,10.51
2022-10-19T00:24:59.677Z,10.54
2022-10-19T00:27:26.109Z,10.48
2022-10-19T00:29:52.470Z,10.38
2022-10-19T00:32:19.758Z,10.40
2022-10-19T00:34:46.159Z,10.33
2022-10-19T00:37:12.532Z,10.25
2022-10-19T00:39:39.377Z,10.16
2022-10-19T00:42:05.922Z,10.08
2022-10-19T00:44:32.272Z,9.99
2022-10-19T00:47:02.157Z,9.91
2022-10-19T00:49:33.217Z,9.86
2022-10-19T00:52:14.611Z,9.74
2022-10-19T00:54:43.946Z,9.68
2022-10-19T00:57:11.564Z,9.63
2022-10-19T00:59:42.321Z,9.63
2022-10-19T01:02:09.140Z,9.58
2022-10-19T01:04:38.311Z,9.58
2022-10-19T01:07:06.769Z,9.55
2022-10-19T01:09:33.210Z,9.54
2022-10-19T01:12:10.836Z,9.51
2022-10-19T01:14:44.452Z,9.45
2022-10-19T01:17:44.689Z,9.37
2022-10-19T01:20:41.741Z,9.34
2022-10-19T01:23:17.159Z,9.28
2022-10-19T01:25:46.181Z,9.25
2022-10-19T01:28:43.635Z,9.15
2022-10-19T01:31:19.038Z,8.95
2022-10-19T01:34:03.536Z,8.95
2022-10-19T01:36:46.613Z,8.98
2022-10-19T01:39:38.356Z,8.88
2022-10-19T01:42:12.244Z,8.83
2022-10-19T01:44:48.009Z,8.79
2022-10-19T01:47:27.391Z,8.77
2022-10-19T01:49:59.010Z,8.73
2022-10-19T01:52:27.098Z,8.71
2022-10-19T01:54:59.451Z,8.70
2022-10-19T01:57:32.067Z,8.72
2022-10-19T01:59:58.632Z,8.68
2022-10-19T02:02:27.872Z,8.64
2022-10-19T02:04:57.246Z,8.55
2022-10-19T02:07:25.034Z,8.63
2022-10-19T02:09:51.482Z,8.63
2022-10-19T02:12:20.332Z,8.55
2022-10-19T02:14:51.910Z,8.39
2022-10-19T02:17:24.048Z,8.40
2022-10-19T02:19:50.908Z,8.33
2022-10-19T02:22:17.584Z,8.32
2022-10-19T02:24:44.056Z,8.24
2022-10-19T02:27:11.269Z,8.18
2022-10-19T02:29:39.745Z,8.16
2022-10-19T02:32:07.126Z,7.96
2022-10-19T02:34:35.151Z,8.00
2022-10-19T02:37:02.042Z,8.00
2022-10-19T02:39:28.645Z,7.90
2022-10-19T02:42:07.207Z,7.85
2022-10-19T02:44:47.205Z,7.95
2022-10-19T02:47:18.460Z,7.90
2022-10-19T02:49:46.557Z,7.97
2022-10-19T02:52:13.980Z,7.96
2022-10-19T02:54:43.728Z,7.98
2022-10-19T02:57:22.109Z,7.97
2022-10-19T02:59:49.071Z,7.89
2022-10-19T03:02:17.033Z,7.87
2022-10-19T03:07:17.389Z,7.78
2022-10-19T03:09:44.427Z,7.69
2022-10-19T03:12:12.572Z,7.67
2022-10-19T03:14:39.236Z,7.60
2022-10-19T03:17:05.654Z,7.49
2022-10-19T03:19:32.428Z,7.46
2022-10-19T03:21:58.800Z,7.43
2022-10-19T03:24:25.265Z,7.42
2022-10-19T03:26:51.820Z,7.48
2022-10-19T03:29:18.279Z,7.51
2022-10-19T03:31:44.656Z,7.50
2022-10-19T03:34:11.053Z,7.47
2022-10-19T03:36:39.592Z,7.46
2022-10-19T03:39:10.175Z,7.48
2022-10-19T03:41:37.581Z,7.49
2022-10-19T03:44:05.259Z,7.47
2022-10-19T03:46:32.648Z,7.48
2022-10-19T03:48:59.080Z,7.53
2022-10-19T03:51:27.760Z,7.58
2022-10-19T03:53:58.455Z,7.57
2022-10-19T03:56:27.700Z,7.53
2022-10-19T03:58:55.916Z,7.55
2022-10-19T04:01:34.490Z,7.53
2022-10-19T04:04:03.643Z,7.60
2022-10-19T04:06:32.918Z,7.66
2022-10-19T04:08:59.835Z,7.61
2022-10-19T04:11:29.089Z,7.54
2022-10-19T04:13:57.259Z,7.44
2022-10-19T04:16:27.796Z,7.35
2022-10-19T04:18:54.826Z,7.34
2022-10-19T04:21:21.188Z,7.25
2022-10-19T04:23:47.868Z,7.25
2022-10-19T04:26:14.678Z,7.16
2022-10-19T04:28:41.250Z,7.12
2022-10-19T04:31:07.723Z,7.10
2022-10-19T04:33:34.774Z,7.09
2022-10-19T04:36:03.463Z,7.10
2022-10-19T04:38:30.045Z,7.05
2022-10-19T04:41:02.287Z,7.01
2022-10-19T04:43:29.018Z,6.92
2022-10-19T04:45:55.541Z,6.83
2022-10-19T04:48:21.977Z,6.85
2022-10-19T04:50:48.444Z,6.78
2022-10-19T04:53:14.841Z,6.87
2022-10-19T04:55:42.282Z,6.93
2022-10-19T04:58:09.001Z,7.01
2022-10-19T05:00:38.482Z,7.05
2022-10-19T05:03:05.107Z,7.05
2022-10-19T05:05:33.443Z,7.01
2022-10-19T05:08:00.006Z,7.02
2022-10-19T05:10:26.859Z,7.00
2022-10-19T05:12:53.640Z,6.91
2022-10-19T05:15:20.412Z,6.92
2022-10-19T05:17:46.839Z,6.94
2022-10-19T05:20:13.212Z,6.93
2022-10-19T05:22:40.218Z,6.95
2022-10-19T05:25:07.483Z,7.06
2022-10-19T05:27:34.196Z,7.12
2022-10-19T05:30:00.800Z,7.16
2022-10-19T05:32:28.534Z,7.08
2022-10-19T05:34:54.968Z,7.18
2022-10-19T05:37:21.652Z,7.24
2022-10-19T05:39:48.142Z,7.19
2022-10-19T05:42:14.674Z,7.03
2022-10-19T05:44:41.132Z,7.07
2022-10-19T05:47:07.563Z,6.94
2022-10-19T05:49:34.122Z,7.24
2022-10-19T05:52:00.564Z,7.34
2022-10-19T05:54:28.533Z,7.38
2022-10-19T05:56:55.375Z,7.43
2022-10-19T05:59:22.184Z,7.40
2022-10-19T06:01:48.998Z,7.45
2022-10-19T06:06:47.326Z,7.43
2022-10-19T06:09:13.996Z,7.44
2022-10-19T06:11:41.748Z,7.44
2022-10-19T06:14:12.376Z,7.53
2022-10-19T06:16:38.941Z,7.47
2022-10-19T06:19:07.153Z,7.39
2022-10-19T06:21:38.612Z,7.34
2022-10-19T06:24:06.569Z,7.36
2022-10-19T06:26:35.578Z,7.47
2022-10-19T06:29:03.203Z,7.54
2022-10-19T06:31:34.944Z,7.60
2022-10-19T06:34:01.787Z,7.64
2022-10-19T06:36:31.561Z,7.66
2022-10-19T06:38:59.762Z,7.54
2022-10-19T06:41:26.608Z,7.61
2022-10-19T06:43:54.467Z,7.61
2022-10-19T06:46:23.467Z,7.87
2022-10-19T06:48:55.125Z,7.98
2022-10-19T06:51:22.456Z,8.13
2022-10-19T06:53:54.205Z,8.38
2022-10-19T06:56:24.394Z,8.53
2022-10-19T06:58:50.948Z,8.74
2022-10-19T07:01:18.332Z,9.17
2022-10-19T07:03:44.791Z,9.66
2022-10-19T07:06:12.883Z,9.98
2022-10-19T07:08:41.601Z,10.46
2022-10-19T07:11:12.317Z,10.42
2022-10-19T07:13:39.129Z,10.42
2022-10-19T07:16:15.874Z,10.99
2022-10-19T07:18:46.955Z,10.60
2022-10-19T07:21:15.422Z,9.67
2022-10-19T07:23:43.599Z,8.71
2022-10-19T07:26:19.450Z,8.90
2022-10-19T07:28:47.329Z,8.81
2022-10-19T07:31:17.825Z,9.12
2022-10-19T07:33:44.982Z,9.06
2022-10-19T07:36:13.223Z,9.08
2022-10-19T07:38:40.441Z,9.41
2022-10-19T07:41:09.744Z,9.56
2022-10-19T07:43:36.324Z,9.58
2022-10-19T07:46:05.691Z,9.83
2022-10-19T07:48:32.626Z,9.89
2022-10-19T07:51:01.401Z,10.18
2022-10-19T07:53:28.435Z,10.37
2022-10-19T07:55:55.060Z,10.63
2022-10-19T07:58:21.505Z,10.87
2022-10-19T08:00:47.999Z,10.95
2022-10-19T08:06:03.360Z,11.57
2022-10-19T08:08:30.151Z,11.75
2022-10-19T08:10:56.957Z,11.61
2022-10-19T08:13:24.075Z,10.95
2022-10-19T08:15:50.530Z,10.51
2022-10-19T08:18:18.356Z,10.94
2022-10-19T08:20:44.962Z,11.00
2022-10-19T08:23:11.556Z,11.30
2022-10-19T08:25:37.933Z,11.69
2022-10-19T08:28:04.445Z,12.19
2022-10-19T08:30:31.175Z,12.17
2022-10-19T08:32:57.582Z,12.48
2022-10-19T08:35:24.010Z,12.78
2022-10-19T08:37:50.720Z,12.87
2022-10-19T08:40:22.710Z,12.88
2022-10-19T08:43:04.227Z,12.86
2022-10-19T08:48:32.981Z,12.24
2022-10-19T08:51:00.765Z,12.18
2022-10-19T08:53:37.256Z,12.21
2022-10-19T08:56:49.419Z,12.27
2022-10-19T08:59:28.490Z,12.15
2022-10-19T09:02:04.834Z,11.90
2022-10-19T09:04:36.651Z,11.79
2022-10-19T09:07:24.594Z,11.75
2022-10-19T09:10:14.612Z,11.51
2022-10-19T09:12:47.914Z,11.57
2022-10-19T09:15:42.299Z,11.74
2022-10-19T09:18:18.467Z,12.02
2022-10-19T09:20:48.724Z,11.93
2022-10-19T09:23:47.673Z,12.11
2022-10-19T09:26:20.180Z,12.66
2022-10-19T09:29:12.740Z,12.78
2022-10-19T09:31:43.322Z,12.58
2022-10-19T09:34:26.630Z,12.32
2022-10-19T09:36:58.782Z,12.43
2022-10-19T09:39:29.344Z,12.71
2022-10-19T09:42:16.364Z,12.69
2022-10-19T09:44:42.780Z,12.82
2022-10-19T09:47:18.229Z,13.90
2022-10-19T09:49:48.121Z,15.97
2022-10-19T09:52:41.895Z,16.43
2022-10-19T09:55:14.479Z,16.10
2022-10-19T09:57:48.850Z,15.74
2022-10-19T10:00:24.361Z,16.34
2022-10-19T10:02:55.242Z,17.69
2022-10-19T10:05:34.749Z,16.81
2022-10-19T10:08:01.517Z,17.66
2022-10-19T10:10:32.458Z,17.92
2022-10-19T10:13:00.317Z,19.12
2022-10-19T10:15:30.617Z,19.44
2022-10-19T10:17:58.238Z,20.13
2022-10-19T10:20:28.303Z,19.78
2022-10-19T10:23:06.142Z,20.53
2022-10-19T10:25:36.317Z,21.79
2022-10-19T10:28:19.811Z,24.05
2022-10-19T10:30:48.260Z,25.40
2022-10-19T10:33:43.852Z,26.86
2022-10-19T10:36:12.474Z,27.42
2022-10-19T10:38:44.980Z,28.57
2022-10-19T10:41:15.882Z,29.21
2022-10-19T10:44:04.575Z,29.34
2022-10-19T10:46:38.076Z,29.13
2022-10-19T10:49:07.524Z,27.43
2022-10-19T10:51:36.949Z,27.42
2022-10-19T10:54:22.609Z,28.57
2022-10-19T10:57:06.718Z,28.95
2022-10-19T10:59:45.755Z,28.90
2022-10-19T11:02:39.958Z,29.07
2022-10-19T11:05:32.117Z,28.63
2022-10-19T11:08:23.885Z,29.63
2022-10-19T11:11:14.011Z,29.92
2022-10-19T11:13:47.748Z,30.30
2022-10-19T11:16:16.518Z,30.51
2022-10-19T11:18:52.278Z,30.24
2022-10-19T11:21:46.758Z,29.77
2022-10-19T11:24:13.190Z,29.95
2022-10-19T11:26:39.637Z,29.51
2022-10-19T11:29:53.774Z,29.59
2022-10-19T11:32:46.100Z,30.32
2022-10-19T11:35:27.930Z,30.56
2022-10-19T11:38:36.034Z,30.54
2022-10-19T11:41:20.433Z,31.01
2022-10-19T11:44:01.038Z,30.91
2022-10-19T11:46:47.564Z,30.96
2022-10-19T11:49:41.131Z,30.05
2022-10-19T11:52:22.367Z,30.57
2022-10-19T11:54:58.792Z,29.51
2022-10-19T11:57:31.347Z,29.98
2022-10-19T12:00:33.888Z,29.33
2022-10-19T12:03:18.288Z,29.82
2022-10-19T12:06:00.859Z,30.30
2022-10-19T12:08:30.294Z,29.74
2022-10-19T12:11:08.756Z,28.19
2022-10-19T12:13:50.001Z,26.14
2022-10-19T12:16:18.479Z,25.04
2022-10-19T12:18:50.118Z,24.40
2022-10-19T12:21:29.220Z,24.62
2022-10-19T12:23:58.878Z,24.21
2022-10-19T12:26:29.026Z,23.69
2022-10-19T12:29:12.452Z,24.26
2022-10-19T12:31:39.096Z,23.25
2022-10-19T12:34:20.583Z,23.44
2022-10-19T12:37:00.734Z,24.22
2022-10-19T12:39:58.430Z,25.03
2022-10-19T12:42:41.695Z,25.48
2022-10-19T12:45:35.712Z,24.81
2022-10-19T12:48:08.127Z,24.30
2022-10-19T12:50:49.936Z,24.70
2022-10-19T12:53:49.126Z,25.66
2022-10-19T12:56:20.725Z,26.17
2022-10-19T12:58:53.044Z,25.51
2022-10-19T13:01:27.246Z,26.82
2022-10-19T13:04:15.242Z,27.62
2022-10-19T13:07:00.142Z,29.16
2022-10-19T13:09:31.763Z,29.17
2022-10-19T13:12:14.786Z,26.67
2022-10-19T13:14:54.514Z,24.35
2022-10-19T13:17:36.158Z,22.95
2022-10-19T13:20:14.839Z,21.85
2022-10-19T13:22:45.636Z,22.00
2022-10-19T13:25:26.905Z,23.20
2022-10-19T13:28:06.621Z,23.28
2022-10-19T13:30:36.226Z,23.29
2022-10-19T13:33:31.326Z,22.78
2022-10-19T13:36:00.627Z,22.80
2022-10-19T13:38:29.428Z,22.08
2022-10-19T13:40:58.041Z,20.85
2022-10-19T13:43:29.768Z,20.44
2022-10-19T13:46:11.865Z,20.18
2022-10-19T13:48:49.964Z,19.62
2022-10-19T13:51:37.439Z,19.53
2022-10-19T13:54:22.721Z,19.37
2022-10-19T13:57:04.288Z,18.84
2022-10-19T13:59:57.767Z,18.84
2022-10-19T14:03:05.390Z,17.61
2022-10-19T14:05:50.810Z,17.41
2022-10-19T14:08:38.467Z,17.72
2022-10-19T14:11:14.278Z,17.66
2022-10-19T14:13:40.746Z,17.48
2022-10-19T14:16:07.270Z,17.54
2022-10-19T14:18:36.352Z,16.98
2022-10-19T14:21:08.973Z,16.85
2022-10-19T14:23:40.029Z,16.57
2022-10-19T14:26:06.691Z,16.54
2022-10-19T14:28:34.041Z,16.51
2022-10-19T14:31:03.225Z,16.12
2022-10-19T14:33:35.325Z,16.29
2022-10-19T14:36:02.498Z,16.31
2022-10-19T14:38:38.271Z,16.26
2022-10-19T14:41:17.192Z,16.34
2022-10-19T14:43:43.579Z,16.44
2022-10-19T14:46:16.586Z,16.24
2022-10-19T14:48:48.691Z,16.18
2022-10-19T14:51:32.822Z,16.27
2022-10-19T14:54:11.367Z,16.24
2022-10-19T14:56:40.850Z,16.32
2022-10-19T14:59:20.205Z,16.31
2022-10-19T15:01:56.719Z,16.24
2022-10-19T15:04:27.456Z,16.10
2022-10-19T15:06:55.166Z,16.06
2022-10-19T15:09:37.671Z,16.05
2022-10-19T15:12:17.300Z,15.80
2022-10-19T15:14:45.736Z,15.72
2022-10-19T15:17:51.151Z,15.61
2022-10-19T15:20:49.305Z,15.53
2022-10-19T15:23:42.972Z,15.46
2022-10-19T15:26:17.119Z,15.25
2022-10-19T15:28:44.676Z,15.30
2022-10-19T15:31:31.406Z,14.96
2022-10-19T15:34:00.594Z,14.88
2022-10-19T15:36:29.419Z,14.73
2022-10-19T15:39:06.416Z,14.84
2022-10-19T15:41:44.808Z,14.61
2022-10-19T15:44:41.985Z,14.28
2022-10-19T15:47:20.248Z,14.22
2022-10-19T15:49:46.961Z,14.16
2022-10-19T15:52:15.503Z,14.06
2022-10-19T15:54:42.821Z,14.09
2022-10-19T15:57:26.068Z,14.01
2022-10-19T15:59:53.740Z,13.86
2022-10-19T16:02:20.152Z,13.74
2022-10-19T16:04:46.737Z,13.71
2022-10-19T16:07:20.949Z,13.66
2022-10-19T16:09:47.346Z,13.53
2022-10-19T16:12:13.748Z,13.47
2022-10-19T16:14:40.305Z,13.37
2022-10-19T16:17:06.754Z,13.33
2022-10-19T16:19:33.234Z,13.27
2022-10-19T16:21:59.731Z,13.21
2022-10-19T16:24:26.207Z,13.17
2022-10-19T16:26:52.636Z,13.11
2022-10-19T16:29:19.036Z,13.07
2022-10-19T16:31:45.473Z,13.00
2022-10-19T16:34:11.976Z,12.83
2022-10-19T16:36:38.463Z,12.84
2022-10-19T16:39:04.976Z,12.68
2022-10-19T16:41:32.018Z,12.70
2022-10-19T16:43:58.551Z,12.76
2022-10-19T16:46:25.800Z,12.83
2022-10-19T16:48:53.054Z,12.91
2022-10-19T16:51:27.621Z,12.91
2022-10-19T16:53:59.475Z,12.92
2022-10-19T16:56:28.538Z,12.86
2022-10-19T16:59:06.340Z,12.83
2022-10-19T17:01:35.044Z,12.75
2022-10-19T17:04:01.679Z,12.74
2022-10-19T17:06:28.792Z,12.75
2022-10-19T17:11:43.975Z,12.70
2022-10-19T17:14:12.232Z,12.78
2022-10-19T17:16:39.058Z,12.82
2022-10-19T17:19:07.298Z,12.79
2022-10-19T17:21:38.468Z,12.77
2022-10-19T17:24:08.314Z,12.79
2022-10-19T17:26:38.131Z,12.84
2022-10-19T17:29:05.809Z,12.83
2022-10-19T17:31:32.632Z,12.86
2022-10-19T17:34:00.744Z,12.85
2022-10-19T17:36:29.725Z,12.91
2022-10-19T17:38:58.653Z,12.91
2022-10-19T17:41:25.840Z,12.98
2022-10-19T17:43:53.452Z,12.84
2022-10-19T17:46:22.618Z,12.90
2022-10-19T17:48:49.352Z,12.89
2022-10-19T17:51:23.592Z,12.98
2022-10-19T17:53:50.845Z,12.93
2022-10-19T17:56:19.957Z,12.89
2022-10-19T17:58:47.268Z,12.96
2022-10-19T18:01:15.403Z,13.03
2022-10-19T18:03:41.989Z,12.84
2022-10-19T18:06:10.900Z,12.86
2022-10-19T18:08:40.541Z,12.71
2022-10-19T18:11:16.472Z,12.78
2022-10-19T18:13:43.509Z,12.66
2022-10-19T18:16:12.814Z,12.63
2022-10-19T18:18:41.698Z,12.57
2022-10-19T18:21:11.413Z,12.59
2022-10-19T18:23:38.292Z,12.31
2022-10-19T18:26:10.892Z,12.32
2022-10-19T18:28:37.985Z,12.29
2022-10-19T18:31:16.043Z,12.15
2022-10-19T18:33:42.854Z,12.05
2022-10-19T18:36:10.692Z,11.98
2022-10-19T18:38:38.584Z,11.93
2022-10-19T18:43:49.522Z,11.68
2022-10-19T18:46:18.535Z,11.62
2022-10-19T18:48:45.872Z,11.47
2022-10-19T18:51:13.055Z,11.37
2022-10-19T18:53:39.507Z,11.26
2022-10-19T18:56:08.302Z,11.16
2022-10-19T18:58:35.856Z,11.12
2022-10-19T19:01:07.021Z,11.09
2022-10-19T19:03:34.099Z,10.95
2022-10-19T19:06:04.973Z,10.86
2022-10-19T19:08:32.294Z,10.79
2022-10-19T19:11:11.113Z,10.69
2022-10-19T19:13:38.403Z,10.61
2022-10-19T19:16:05.620Z,10.46
2022-10-19T19:18:34.047Z,10.42
2022-10-19T19:21:02.189Z,10.35
2022-10-19T19:23:29.532Z,10.28
2022-10-19T19:25:57.093Z,10.28
2022-10-19T19:28:23.632Z,10.19
2022-10-19T19:30:50.148Z,10.16
2022-10-19T19:33:16.580Z,10.12
2022-10-19T19:35:47.720Z,10.01
2022-10-19T19:38:15.467Z,9.96
2022-10-19T19:40:44.632Z,9.81
2022-10-19T19:43:12.402Z,9.79
2022-10-19T19:45:39.437Z,9.82
2022-10-19T19:48:07.083Z,9.75
2022-10-19T19:50:34.832Z,9.69
2022-10-19T19:53:04.797Z,9.61
2022-10-19T19:55:36.765Z,9.59
2022-10-19T19:58:05.423Z,9.60
2022-10-19T20:00:31.894Z,9.47
2022-10-19T20:02:59.310Z,9.44
2022-10-19T20:05:26.578Z,9.41
2022-10-19T20:07:53.005Z,9.32
2022-10-19T20:10:19.549Z,9.21
2022-10-19T20:12:47.240Z,9.09
2022-10-19T20:15:15.664Z,9.02
2022-10-19T20:17:42.570Z,8.97
2022-10-19T20:20:10.322Z,8.95
2022-10-19T20:22:37.022Z,8.84
2022-10-19T20:25:04.754Z,8.81
2022-10-19T20:27:35.034Z,8.77
2022-10-19T20:30:01.712Z,8.73
2022-10-19T20:32:29.127Z,8.63
2022-10-19T20:34:55.614Z,8.51
2022-10-19T20:37:22.238Z,8.44
2022-10-19T20:39:49.255Z,8.42
2022-10-19T20:42:17.016Z,8.45
2022-10-19T20:44:43.902Z,8.54
2022-10-19T20:47:10.578Z,8.49
2022-10-19T20:49:37.044Z,8.48
2022-10-19T20:52:04.146Z,8.32
2022-10-19T20:54:30.720Z,8.29
2022-10-19T20:56:57.599Z,8.23
2022-10-19T20:59:27.790Z,8.26
2022-10-19T21:01:56.840Z,8.19
2022-10-19T21:04:25.544Z,8.14
2022-10-19T21:06:53.006Z,8.12
2022-10-19T21:09:22.376Z,8.19
2022-10-19T21:11:50.678Z,8.21
2022-10-19T21:14:22.408Z,8.28
2022-10-19T21:16:52.196Z,8.37
2022-10-19T21:19:22.098Z,8.43
2022-10-19T21:21:51.728Z,8.47
2022-10-19T21:24:23.730Z,8.64
2022-10-19T21:29:21.871Z,8.66
2022-10-19T21:31:50.127Z,8.60
2022-10-19T21:34:20.194Z,8.60
2022-10-19T21:36:47.322Z,8.55
2022-10-19T21:39:14.016Z,8.53
2022-10-19T21:41:40.538Z,8.48
2022-10-19T21:44:10.171Z,8.41
2022-10-19T21:46:36.543Z,8.28
2022-10-19T21:49:03.570Z,8.29
2022-10-19T21:51:37.557Z,8.34
2022-10-19T21:54:05.816Z,8.37
2022-10-19T21:56:33.658Z,8.43
2022-10-19T21:59:02.599Z,8.47
2022-10-19T22:01:30.367Z,8.42
2022-10-19T22:03:58.740Z,8.46
2022-10-19T22:06:27.656Z,8.53
2022-10-19T22:08:54.329Z,8.46
2022-10-19T22:11:21.297Z,8.44
2022-10-19T22:13:47.860Z,8.47
2022-10-19T22:16:19.348Z,8.50
2022-10-19T22:18:46.830Z,8.55
2022-10-19T22:21:16.269Z,8.58
2022-10-19T22:23:43.224Z,8.64
2022-10-19T22:26:18.071Z,8.72
2022-10-19T22:28:44.830Z,8.78
2022-10-19T22:31:12.377Z,8.81
2022-10-19T22:33:39.429Z,8.88
2022-10-19T22:36:07.998Z,8.95
2022-10-19T22:38:35.347Z,8.94
2022-10-19T22:41:01.787Z,8.93
2022-10-19T22:43:28.230Z,8.84
2022-10-19T22:45:54.605Z,8.81
2022-10-19T22:48:21.094Z,8.80
2022-10-19T22:50:47.547Z,8.78
2022-10-19T22:53:13.943Z,8.79
2022-10-19T22:55:40.356Z,8.79
2022-10-19T22:58:08.000Z,8.73
2022-10-19T23:00:34.426Z,8.68
2022-10-19T23:03:00.903Z,8.63
2022-10-19T23:05:27.254Z,8.57
2022-10-19T23:07:53.615Z,8.58
2022-10-19T23:10:20.130Z,8.46
2022-10-19T23:12:53.990Z,8.46
2022-10-19T23:15:21.175Z,8.48
2022-10-19T23:17:47.892Z,8.36
2022-10-19T23:20:15.765Z,8.28
2022-10-19T23:22:42.132Z,8.18
2022-10-19T23:25:09.176Z,8.19
2022-10-19T23:27:35.819Z,8.16
2022-10-19T23:30:03.916Z,8.09
2022-10-19T23:32:30.300Z,8.11
2022-10-19T23:34:56.833Z,8.06
2022-10-19T23:37:23.204Z,7.97
2022-10-19T23:39:49.665Z,7.97
2022-10-19T23:42:16.139Z,7.98
2022-10-19T23:44:42.618Z,7.86
2022-10-19T23:47:08.994Z,7.85
2022-10-19T23:49:35.357Z,7.72
2022-10-19T23:52:01.827Z,7.65
2022-10-19T23:54:28.195Z,7.63
2022-10-19T23:56:54.583Z,7.55
2022-10-19T23:59:21.033Z,7.60
